Archival Weather

Rochelle Muni/Koritz Fld

Rochelle, Illinois (KRPJ)

Report from: Sunday, February 5, 2023 7:55 PM CST
Current time: Wednesday, May 29, 2024 7:56 PM CDT

Current weather – Weather history – Daily summaries
Weather forecast

Temperature-2.5°C (27.5°F)
Wind chill-6.1°C (21.1°F)
Dew point-3.3°C (26.1°F)
Winds 5 kts (2.6 m/s, 5.8 mph) West-Northwest (290°)
Visibility10 mi. (16.1 km)
Clouds Sky clear
Altimeter30.12 in.Hg (1020 mB)
Relative humidity94 %
Density altitude-2,307 ft. (-703 m)
Remarks Fully automated report
Automated weather observing station with precipitation discriminator
Lightning detection system not operating
Flight conditions Visual Meteorological Conditions
Raw dataKRPJ 060155Z AUTO 29005KT 10SM CLR M02/M03 A3012 RMK AO2 T10251033 TSNO
An error has occurred. This application may no longer respond until reloaded. Reload 🗙